sensor_id;sensor_type;location;lat;lon;timestamp;temperature;humidity
27128;DHT22;14660;49.008;8.390;2023-02-01T00:00:30;6.80;99.90
27128;DHT22;14660;49.008;8.390;2023-02-01T00:03:00;6.80;99.90
27128;DHT22;14660;49.008;8.390;2023-02-01T00:05:25;6.80;99.90
27128;DHT22;14660;49.008;8.390;2023-02-01T00:07:52;6.80;99.90
27128;DHT22;14660;49.008;8.390;2023-02-01T00:10:19;6.90;99.90
27128;DHT22;14660;49.008;8.390;2023-02-01T00:12:46;6.90;99.90
27128;DHT22;14660;49.008;8.390;2023-02-01T00:15:13;6.90;99.90
27128;DHT22;14660;49.008;8.390;2023-02-01T00:17:40;7.00;99.90
27128;DHT22;14660;49.008;8.390;2023-02-01T00:20:07;6.90;99.90
27128;DHT22;14660;49.008;8.390;2023-02-01T00:22:35;6.90;99.90
27128;DHT22;14660;49.008;8.390;2023-02-01T00:25:02;6.90;99.90
27128;DHT22;14660;49.008;8.390;2023-02-01T00:27:30;6.80;99.90
27128;DHT22;14660;49.008;8.390;2023-02-01T00:29:57;6.90;99.90
27128;DHT22;14660;49.008;8.390;2023-02-01T00:32:24;6.80;99.90
27128;DHT22;14660;49.008;8.390;2023-02-01T00:34:51;6.90;99.90
27128;DHT22;14660;49.008;8.390;2023-02-01T00:37:18;6.90;99.90
27128;DHT22;14660;49.008;8.390;2023-02-01T00:39:44;6.90;99.90
27128;DHT22;14660;49.008;8.390;2023-02-01T00:42:13;6.90;99.90
27128;DHT22;14660;49.008;8.390;2023-02-01T00:44:40;6.90;99.90
27128;DHT22;14660;49.008;8.390;2023-02-01T00:47:08;6.90;99.90
27128;DHT22;14660;49.008;8.390;2023-02-01T00:49:35;6.80;99.90
27128;DHT22;14660;49.008;8.390;2023-02-01T00:52:01;6.90;99.90
27128;DHT22;14660;49.008;8.390;2023-02-01T00:54:28;6.90;99.90
27128;DHT22;14660;49.008;8.390;2023-02-01T00:56:55;6.90;99.90
27128;DHT22;14660;49.008;8.390;2023-02-01T00:59:22;6.80;99.90
27128;DHT22;14660;49.008;8.390;2023-02-01T01:01:49;6.80;99.90
27128;DHT22;14660;49.008;8.390;2023-02-01T01:04:16;6.70;99.90
27128;DHT22;14660;49.008;8.390;2023-02-01T01:06:43;6.80;99.90
27128;DHT22;14660;49.008;8.390;2023-02-01T01:09:10;6.90;99.90
27128;DHT22;14660;49.008;8.390;2023-02-01T01:11:38;6.90;99.90
27128;DHT22;14660;49.008;8.390;2023-02-01T01:14:06;6.80;99.90
27128;DHT22;14660;49.008;8.390;2023-02-01T01:16:33;6.80;99.90
27128;DHT22;14660;49.008;8.390;2023-02-01T01:19:00;6.80;99.90
27128;DHT22;14660;49.008;8.390;2023-02-01T01:21:28;6.80;99.90
27128;DHT22;14660;49.008;8.390;2023-02-01T01:23:55;6.80;99.90
27128;DHT22;14660;49.008;8.390;2023-02-01T01:26:24;6.80;99.90
27128;DHT22;14660;49.008;8.390;2023-02-01T01:28:52;6.80;99.90
27128;DHT22;14660;49.008;8.390;2023-02-01T01:31:20;6.80;99.90
27128;DHT22;14660;49.008;8.390;2023-02-01T01:33:54;6.90;99.90
27128;DHT22;14660;49.008;8.390;2023-02-01T01:36:23;6.80;99.90
27128;DHT22;14660;49.008;8.390;2023-02-01T01:38:50;6.80;99.90
27128;DHT22;14660;49.008;8.390;2023-02-01T01:41:21;6.70;99.90
27128;DHT22;14660;49.008;8.390;2023-02-01T01:44:06;6.60;99.90
27128;DHT22;14660;49.008;8.390;2023-02-01T01:46:59;6.60;99.90
27128;DHT22;14660;49.008;8.390;2023-02-01T01:49:25;6.70;99.90
27128;DHT22;14660;49.008;8.390;2023-02-01T01:51:55;6.70;99.90
27128;DHT22;14660;49.008;8.390;2023-02-01T01:54:43;6.80;99.90
27128;DHT22;14660;49.008;8.390;2023-02-01T01:57:46;6.90;99.90
27128;DHT22;14660;49.008;8.390;2023-02-01T02:00:14;6.80;99.90
27128;DHT22;14660;49.008;8.390;2023-02-01T02:02:47;6.70;99.90
27128;DHT22;14660;49.008;8.390;2023-02-01T02:05:16;6.70;99.90
27128;DHT22;14660;49.008;8.390;2023-02-01T02:07:46;6.80;99.90
27128;DHT22;14660;49.008;8.390;2023-02-01T02:10:15;6.80;99.90
27128;DHT22;14660;49.008;8.390;2023-02-01T02:12:44;6.80;99.90
27128;DHT22;14660;49.008;8.390;2023-02-01T02:15:14;6.80;99.90
27128;DHT22;14660;49.008;8.390;2023-02-01T02:18:11;6.80;99.90
27128;DHT22;14660;49.008;8.390;2023-02-01T02:39:21;6.80;99.90
27128;DHT22;14660;49.008;8.390;2023-02-01T02:48:54;6.70;99.90
27128;DHT22;14660;49.008;8.390;2023-02-01T02:51:46;6.90;99.90
27128;DHT22;14660;49.008;8.390;2023-02-01T02:54:38;6.80;99.90
27128;DHT22;14660;49.008;8.390;2023-02-01T02:57:37;6.90;99.90
27128;DHT22;14660;49.008;8.390;2023-02-01T03:00:29;6.90;99.90
27128;DHT22;14660;49.008;8.390;2023-02-01T03:03:18;6.80;99.90
27128;DHT22;14660;49.008;8.390;2023-02-01T03:06:04;6.80;99.90
27128;DHT22;14660;49.008;8.390;2023-02-01T03:08:37;6.90;99.90
27128;DHT22;14660;49.008;8.390;2023-02-01T03:11:23;6.90;99.90
27128;DHT22;14660;49.008;8.390;2023-02-01T03:13:56;6.90;99.90
27128;DHT22;14660;49.008;8.390;2023-02-01T03:16:50;6.80;99.90
27128;DHT22;14660;49.008;8.390;2023-02-01T03:19:29;6.90;99.90
27128;DHT22;14660;49.008;8.390;2023-02-01T03:22:12;6.80;99.90
27128;DHT22;14660;49.008;8.390;2023-02-01T03:24:48;6.90;99.90
27128;DHT22;14660;49.008;8.390;2023-02-01T03:30:40;6.90;99.90
27128;DHT22;14660;49.008;8.390;2023-02-01T03:33:20;6.80;99.90
27128;DHT22;14660;49.008;8.390;2023-02-01T03:39:11;6.80;99.90
27128;DHT22;14660;49.008;8.390;2023-02-01T03:42:00;6.80;99.90
27128;DHT22;14660;49.008;8.390;2023-02-01T03:47:35;6.80;99.90
27128;DHT22;14660;49.008;8.390;2023-02-01T03:50:09;6.80;99.90
27128;DHT22;14660;49.008;8.390;2023-02-01T03:55:24;6.80;99.90
27128;DHT22;14660;49.008;8.390;2023-02-01T03:58:14;6.80;99.90
27128;DHT22;14660;49.008;8.390;2023-02-01T04:00:51;6.80;99.90
27128;DHT22;14660;49.008;8.390;2023-02-01T04:03:18;6.80;99.90
27128;DHT22;14660;49.008;8.390;2023-02-01T04:05:46;6.90;99.90
27128;DHT22;14660;49.008;8.390;2023-02-01T04:08:13;6.90;99.90
27128;DHT22;14660;49.008;8.390;2023-02-01T04:10:41;6.90;99.90
27128;DHT22;14660;49.008;8.390;2023-02-01T04:13:07;6.90;99.90
27128;DHT22;14660;49.008;8.390;2023-02-01T04:15:34;6.90;99.90
27128;DHT22;14660;49.008;8.390;2023-02-01T04:18:01;6.80;99.90
27128;DHT22;14660;49.008;8.390;2023-02-01T04:20:29;6.80;99.90
27128;DHT22;14660;49.008;8.390;2023-02-01T04:22:56;7.00;99.90
27128;DHT22;14660;49.008;8.390;2023-02-01T04:25:23;7.00;99.90
27128;DHT22;14660;49.008;8.390;2023-02-01T04:27:50;6.90;99.90
27128;DHT22;14660;49.008;8.390;2023-02-01T04:30:17;6.80;99.90
27128;DHT22;14660;49.008;8.390;2023-02-01T04:32:44;6.90;99.90
27128;DHT22;14660;49.008;8.390;2023-02-01T04:35:10;7.00;99.90
27128;DHT22;14660;49.008;8.390;2023-02-01T04:37:38;6.90;99.90
27128;DHT22;14660;49.008;8.390;2023-02-01T04:40:05;7.00;99.90
27128;DHT22;14660;49.008;8.390;2023-02-01T04:42:32;6.90;99.90
27128;DHT22;14660;49.008;8.390;2023-02-01T04:44:59;6.90;99.90
27128;DHT22;14660;49.008;8.390;2023-02-01T04:47:26;6.90;99.90
27128;DHT22;14660;49.008;8.390;2023-02-01T04:49:53;6.90;99.90
27128;DHT22;14660;49.008;8.390;2023-02-01T04:52:20;6.90;99.90
27128;DHT22;14660;49.008;8.390;2023-02-01T04:54:48;6.90;99.90
27128;DHT22;14660;49.008;8.390;2023-02-01T04:57:15;6.90;99.90
27128;DHT22;14660;49.008;8.390;2023-02-01T04:59:42;6.90;99.90
27128;DHT22;14660;49.008;8.390;2023-02-01T05:02:08;6.90;99.90
27128;DHT22;14660;49.008;8.390;2023-02-01T05:04:35;6.90;99.90
27128;DHT22;14660;49.008;8.390;2023-02-01T05:07:03;6.80;99.90
27128;DHT22;14660;49.008;8.390;2023-02-01T05:09:30;6.80;99.90
27128;DHT22;14660;49.008;8.390;2023-02-01T05:11:57;6.80;99.90
27128;DHT22;14660;49.008;8.390;2023-02-01T05:14:43;6.70;99.90
27128;DHT22;14660;49.008;8.390;2023-02-01T05:17:10;6.70;99.90
27128;DHT22;14660;49.008;8.390;2023-02-01T05:19:37;6.70;99.90
27128;DHT22;14660;49.008;8.390;2023-02-01T05:22:04;6.70;99.90
27128;DHT22;14660;49.008;8.390;2023-02-01T05:24:31;6.80;99.90
27128;DHT22;14660;49.008;8.390;2023-02-01T05:26:58;6.80;99.90
27128;DHT22;14660;49.008;8.390;2023-02-01T05:29:25;6.80;99.90
27128;DHT22;14660;49.008;8.390;2023-02-01T05:31:52;6.80;99.90
27128;DHT22;14660;49.008;8.390;2023-02-01T05:34:19;6.80;99.90
27128;DHT22;14660;49.008;8.390;2023-02-01T05:36:47;6.80;99.90
27128;DHT22;14660;49.008;8.390;2023-02-01T05:39:14;6.70;99.90
27128;DHT22;14660;49.008;8.390;2023-02-01T05:41:40;6.70;99.90
27128;DHT22;14660;49.008;8.390;2023-02-01T05:44:07;6.60;99.90
27128;DHT22;14660;49.008;8.390;2023-02-01T05:46:35;6.70;99.90
27128;DHT22;14660;49.008;8.390;2023-02-01T05:49:02;6.80;99.90
27128;DHT22;14660;49.008;8.390;2023-02-01T05:51:32;6.70;99.90
27128;DHT22;14660;49.008;8.390;2023-02-01T05:54:00;6.80;99.90
27128;DHT22;14660;49.008;8.390;2023-02-01T05:56:27;6.80;99.90
27128;DHT22;14660;49.008;8.390;2023-02-01T05:58:54;6.90;99.90
27128;DHT22;14660;49.008;8.390;2023-02-01T06:01:21;6.80;99.90
27128;DHT22;14660;49.008;8.390;2023-02-01T06:03:48;6.80;99.90
27128;DHT22;14660;49.008;8.390;2023-02-01T06:06:15;6.80;99.90
27128;DHT22;14660;49.008;8.390;2023-02-01T06:08:41;6.80;99.90
27128;DHT22;14660;49.008;8.390;2023-02-01T06:11:08;6.70;99.90
27128;DHT22;14660;49.008;8.390;2023-02-01T06:13:35;6.80;99.90
27128;DHT22;14660;49.008;8.390;2023-02-01T06:16:04;6.80;99.90
27128;DHT22;14660;49.008;8.390;2023-02-01T06:18:38;6.70;99.90
27128;DHT22;14660;49.008;8.390;2023-02-01T06:21:05;6.70;99.90
27128;DHT22;14660;49.008;8.390;2023-02-01T06:23:32;6.70;99.90
27128;DHT22;14660;49.008;8.390;2023-02-01T06:26:17;6.80;99.90
27128;DHT22;14660;49.008;8.390;2023-02-01T06:28:44;6.80;99.90
27128;DHT22;14660;49.008;8.390;2023-02-01T06:31:11;6.80;99.90
27128;DHT22;14660;49.008;8.390;2023-02-01T06:33:39;6.80;99.90
27128;DHT22;14660;49.008;8.390;2023-02-01T06:36:09;6.80;99.90
27128;DHT22;14660;49.008;8.390;2023-02-01T06:38:35;6.90;99.90
27128;DHT22;14660;49.008;8.390;2023-02-01T06:41:02;6.80;99.90
27128;DHT22;14660;49.008;8.390;2023-02-01T06:43:31;6.80;99.90
27128;DHT22;14660;49.008;8.390;2023-02-01T06:46:05;6.80;99.90
27128;DHT22;14660;49.008;8.390;2023-02-01T06:48:32;6.80;99.90
27128;DHT22;14660;49.008;8.390;2023-02-01T06:50:59;6.80;99.90
27128;DHT22;14660;49.008;8.390;2023-02-01T06:53:26;6.90;99.90
27128;DHT22;14660;49.008;8.390;2023-02-01T06:55:55;6.90;99.90
27128;DHT22;14660;49.008;8.390;2023-02-01T06:58:22;6.90;99.90
27128;DHT22;14660;49.008;8.390;2023-02-01T07:00:52;6.90;99.90
27128;DHT22;14660;49.008;8.390;2023-02-01T07:03:20;6.90;99.90
27128;DHT22;14660;49.008;8.390;2023-02-01T07:05:47;6.90;99.90
27128;DHT22;14660;49.008;8.390;2023-02-01T07:08:14;6.90;99.90
27128;DHT22;14660;49.008;8.390;2023-02-01T07:10:42;7.00;99.90
27128;DHT22;14660;49.008;8.390;2023-02-01T07:13:09;6.90;99.90
27128;DHT22;14660;49.008;8.390;2023-02-01T07:15:35;7.00;99.90
27128;DHT22;14660;49.008;8.390;2023-02-01T07:18:02;7.00;99.90
27128;DHT22;14660;49.008;8.390;2023-02-01T07:20:28;6.90;99.90
27128;DHT22;14660;49.008;8.390;2023-02-01T07:22:59;6.90;99.90
27128;DHT22;14660;49.008;8.390;2023-02-01T07:25:25;6.90;99.90
27128;DHT22;14660;49.008;8.390;2023-02-01T07:27:52;6.90;99.90
27128;DHT22;14660;49.008;8.390;2023-02-01T07:30:19;6.80;99.90
27128;DHT22;14660;49.008;8.390;2023-02-01T07:32:46;6.80;99.90
27128;DHT22;14660;49.008;8.390;2023-02-01T07:35:13;6.80;99.90
27128;DHT22;14660;49.008;8.390;2023-02-01T07:37:40;6.80;99.90
27128;DHT22;14660;49.008;8.390;2023-02-01T07:40:08;6.80;99.90
27128;DHT22;14660;49.008;8.390;2023-02-01T07:42:35;6.80;99.90
27128;DHT22;14660;49.008;8.390;2023-02-01T07:45:02;6.70;99.90
27128;DHT22;14660;49.008;8.390;2023-02-01T07:47:30;6.70;99.90
27128;DHT22;14660;49.008;8.390;2023-02-01T07:49:56;6.80;99.90
27128;DHT22;14660;49.008;8.390;2023-02-01T07:52:23;6.90;99.90
27128;DHT22;14660;49.008;8.390;2023-02-01T07:54:50;6.90;99.90
27128;DHT22;14660;49.008;8.390;2023-02-01T07:57:16;7.00;99.90
27128;DHT22;14660;49.008;8.390;2023-02-01T07:59:43;7.00;99.90
27128;DHT22;14660;49.008;8.390;2023-02-01T08:02:43;7.00;99.90
27128;DHT22;14660;49.008;8.390;2023-02-01T08:05:10;7.00;99.90
27128;DHT22;14660;49.008;8.390;2023-02-01T08:07:37;7.00;99.90
27128;DHT22;14660;49.008;8.390;2023-02-01T08:10:04;7.00;99.90
27128;DHT22;14660;49.008;8.390;2023-02-01T08:12:37;6.90;99.90
27128;DHT22;14660;49.008;8.390;2023-02-01T08:15:04;6.90;99.90
27128;DHT22;14660;49.008;8.390;2023-02-01T08:17:32;7.10;99.90
27128;DHT22;14660;49.008;8.390;2023-02-01T08:20:00;7.10;99.90
27128;DHT22;14660;49.008;8.390;2023-02-01T08:22:31;7.00;99.90
27128;DHT22;14660;49.008;8.390;2023-02-01T08:24:59;7.10;99.90
27128;DHT22;14660;49.008;8.390;2023-02-01T08:27:27;7.20;99.90
27128;DHT22;14660;49.008;8.390;2023-02-01T08:29:54;7.10;99.90
27128;DHT22;14660;49.008;8.390;2023-02-01T08:32:21;7.00;99.90
27128;DHT22;14660;49.008;8.390;2023-02-01T08:34:47;7.10;99.90
27128;DHT22;14660;49.008;8.390;2023-02-01T08:37:14;7.20;99.90
27128;DHT22;14660;49.008;8.390;2023-02-01T08:39:40;7.00;99.90
27128;DHT22;14660;49.008;8.390;2023-02-01T08:42:11;7.10;99.90
27128;DHT22;14660;49.008;8.390;2023-02-01T08:44:56;7.10;99.90
27128;DHT22;14660;49.008;8.390;2023-02-01T08:47:24;7.00;99.90
27128;DHT22;14660;49.008;8.390;2023-02-01T08:49:51;7.00;99.90
27128;DHT22;14660;49.008;8.390;2023-02-01T08:52:17;7.10;99.90
27128;DHT22;14660;49.008;8.390;2023-02-01T08:54:44;7.00;99.90
27128;DHT22;14660;49.008;8.390;2023-02-01T08:57:10;6.90;99.90
27128;DHT22;14660;49.008;8.390;2023-02-01T08:59:37;7.00;99.90
27128;DHT22;14660;49.008;8.390;2023-02-01T09:02:04;7.10;99.90
27128;DHT22;14660;49.008;8.390;2023-02-01T09:04:31;7.20;99.90
27128;DHT22;14660;49.008;8.390;2023-02-01T09:06:59;7.20;99.90
27128;DHT22;14660;49.008;8.390;2023-02-01T09:09:27;7.30;99.90
27128;DHT22;14660;49.008;8.390;2023-02-01T09:11:54;7.40;99.90
27128;DHT22;14660;49.008;8.390;2023-02-01T09:14:21;7.20;99.90
27128;DHT22;14660;49.008;8.390;2023-02-01T09:16:48;7.40;99.90
27128;DHT22;14660;49.008;8.390;2023-02-01T09:19:15;7.40;99.90
27128;DHT22;14660;49.008;8.390;2023-02-01T09:21:42;7.50;99.90
27128;DHT22;14660;49.008;8.390;2023-02-01T09:24:10;7.60;99.90
27128;DHT22;14660;49.008;8.390;2023-02-01T09:26:37;7.60;99.90
27128;DHT22;14660;49.008;8.390;2023-02-01T09:29:05;7.70;99.90
27128;DHT22;14660;49.008;8.390;2023-02-01T09:31:38;7.70;99.90
27128;DHT22;14660;49.008;8.390;2023-02-01T09:34:06;7.60;99.90
27128;DHT22;14660;49.008;8.390;2023-02-01T09:36:33;7.70;99.90
27128;DHT22;14660;49.008;8.390;2023-02-01T09:39:01;7.70;99.90
27128;DHT22;14660;49.008;8.390;2023-02-01T09:47:41;7.60;99.90
27128;DHT22;14660;49.008;8.390;2023-02-01T09:50:35;7.60;99.90
27128;DHT22;14660;49.008;8.390;2023-02-01T09:53:39;7.60;99.90
27128;DHT22;14660;49.008;8.390;2023-02-01T09:56:25;7.60;99.90
27128;DHT22;14660;49.008;8.390;2023-02-01T10:02:09;7.50;99.90
27128;DHT22;14660;49.008;8.390;2023-02-01T10:04:36;7.50;99.90
27128;DHT22;14660;49.008;8.390;2023-02-01T10:16:05;7.60;99.90
27128;DHT22;14660;49.008;8.390;2023-02-01T10:27:33;7.80;99.90
27128;DHT22;14660;49.008;8.390;2023-02-01T10:30:05;7.90;99.90
27128;DHT22;14660;49.008;8.390;2023-02-01T10:32:35;8.00;99.90
27128;DHT22;14660;49.008;8.390;2023-02-01T10:37:42;8.00;99.90
27128;DHT22;14660;49.008;8.390;2023-02-01T10:40:26;7.90;99.90
27128;DHT22;14660;49.008;8.390;2023-02-01T10:42:56;8.00;99.90
27128;DHT22;14660;49.008;8.390;2023-02-01T10:45:27;7.90;99.90
27128;DHT22;14660;49.008;8.390;2023-02-01T10:47:55;7.90;99.90
27128;DHT22;14660;49.008;8.390;2023-02-01T10:50:51;7.90;99.90
27128;DHT22;14660;49.008;8.390;2023-02-01T10:56:26;8.10;99.90
27128;DHT22;14660;49.008;8.390;2023-02-01T10:59:00;8.10;99.90
27128;DHT22;14660;49.008;8.390;2023-02-01T11:01:45;8.00;99.90
27128;DHT22;14660;49.008;8.390;2023-02-01T11:04:20;8.00;99.90
27128;DHT22;14660;49.008;8.390;2023-02-01T11:07:06;7.90;99.90
27128;DHT22;14660;49.008;8.390;2023-02-01T11:09:39;8.00;99.90
27128;DHT22;14660;49.008;8.390;2023-02-01T11:15:25;8.00;99.90
27128;DHT22;14660;49.008;8.390;2023-02-01T11:17:53;8.00;99.90
27128;DHT22;14660;49.008;8.390;2023-02-01T11:20:42;8.00;99.90
27128;DHT22;14660;49.008;8.390;2023-02-01T11:23:22;8.00;99.90
27128;DHT22;14660;49.008;8.390;2023-02-01T11:26:10;8.00;99.90
27128;DHT22;14660;49.008;8.390;2023-02-01T11:28:40;8.00;99.90
27128;DHT22;14660;49.008;8.390;2023-02-01T11:31:10;8.00;99.90
27128;DHT22;14660;49.008;8.390;2023-02-01T11:33:39;8.00;99.90
27128;DHT22;14660;49.008;8.390;2023-02-01T11:36:10;8.10;99.90
27128;DHT22;14660;49.008;8.390;2023-02-01T11:38:46;8.00;99.90
27128;DHT22;14660;49.008;8.390;2023-02-01T11:41:26;8.00;99.90
27128;DHT22;14660;49.008;8.390;2023-02-01T11:44:45;8.00;99.90
27128;DHT22;14660;49.008;8.390;2023-02-01T11:47:22;8.00;99.90
27128;DHT22;14660;49.008;8.390;2023-02-01T11:50:02;7.90;99.90
27128;DHT22;14660;49.008;8.390;2023-02-01T11:55:40;8.00;99.90
27128;DHT22;14660;49.008;8.390;2023-02-01T12:01:37;8.10;99.90
27128;DHT22;14660;49.008;8.390;2023-02-01T12:16:30;8.10;99.90
27128;DHT22;14660;49.008;8.390;2023-02-01T12:42:55;8.10;99.90
27128;DHT22;14660;49.008;8.390;2023-02-01T12:45:42;8.10;99.90
27128;DHT22;14660;49.008;8.390;2023-02-01T12:51:17;8.10;99.90
27128;DHT22;14660;49.008;8.390;2023-02-01T12:57:24;8.10;99.90
27128;DHT22;14660;49.008;8.390;2023-02-01T13:06:02;8.10;99.90
27128;DHT22;14660;49.008;8.390;2023-02-01T13:11:37;8.00;99.90
27128;DHT22;14660;49.008;8.390;2023-02-01T13:14:32;8.10;99.90
27128;DHT22;14660;49.008;8.390;2023-02-01T13:17:16;8.20;99.90
27128;DHT22;14660;49.008;8.390;2023-02-01T13:22:36;8.10;99.90
27128;DHT22;14660;49.008;8.390;2023-02-01T13:28:16;8.10;99.90
27128;DHT22;14660;49.008;8.390;2023-02-01T13:43:13;8.30;99.90
27128;DHT22;14660;49.008;8.390;2023-02-01T13:45:49;8.30;99.90
27128;DHT22;14660;49.008;8.390;2023-02-01T13:51:07;8.40;99.90
27128;DHT22;14660;49.008;8.390;2023-02-01T13:53:37;8.40;99.90
27128;DHT22;14660;49.008;8.390;2023-02-01T13:56:20;8.30;99.90
27128;DHT22;14660;49.008;8.390;2023-02-01T13:58:52;8.30;99.90
27128;DHT22;14660;49.008;8.390;2023-02-01T14:01:37;8.40;99.90
27128;DHT22;14660;49.008;8.390;2023-02-01T14:04:05;8.30;99.90
27128;DHT22;14660;49.008;8.390;2023-02-01T14:06:53;8.30;99.90
27128;DHT22;14660;49.008;8.390;2023-02-01T14:09:32;8.40;99.90
27128;DHT22;14660;49.008;8.390;2023-02-01T14:15:25;8.50;99.90
27128;DHT22;14660;49.008;8.390;2023-02-01T14:17:52;8.50;99.90
27128;DHT22;14660;49.008;8.390;2023-02-01T14:23:27;8.50;99.90
27128;DHT22;14660;49.008;8.390;2023-02-01T14:26:04;8.50;99.90
27128;DHT22;14660;49.008;8.390;2023-02-01T14:28:31;8.50;99.90
27128;DHT22;14660;49.008;8.390;2023-02-01T14:31:00;8.60;99.90
27128;DHT22;14660;49.008;8.390;2023-02-01T14:33:27;8.50;99.90
27128;DHT22;14660;49.008;8.390;2023-02-01T14:36:21;8.40;99.90
27128;DHT22;14660;49.008;8.390;2023-02-01T14:38:51;8.50;99.90
27128;DHT22;14660;49.008;8.390;2023-02-01T14:41:39;8.50;99.90
27128;DHT22;14660;49.008;8.390;2023-02-01T14:44:29;8.50;99.90
27128;DHT22;14660;49.008;8.390;2023-02-01T14:53:22;8.50;99.90
27128;DHT22;14660;49.008;8.390;2023-02-01T14:56:12;8.50;99.90
27128;DHT22;14660;49.008;8.390;2023-02-01T15:01:35;8.70;99.90
27128;DHT22;14660;49.008;8.390;2023-02-01T15:04:25;8.70;99.90
27128;DHT22;14660;49.008;8.390;2023-02-01T15:07:11;8.70;99.90
27128;DHT22;14660;49.008;8.390;2023-02-01T15:09:43;8.70;99.90
27128;DHT22;14660;49.008;8.390;2023-02-01T15:12:29;8.70;99.90
27128;DHT22;14660;49.008;8.390;2023-02-01T15:15:23;8.60;99.90
27128;DHT22;14660;49.008;8.390;2023-02-01T15:17:59;8.70;99.90
27128;DHT22;14660;49.008;8.390;2023-02-01T15:20:31;8.60;99.90
27128;DHT22;14660;49.008;8.390;2023-02-01T15:23:04;8.60;99.90
27128;DHT22;14660;49.008;8.390;2023-02-01T15:25:34;8.50;99.90
27128;DHT22;14660;49.008;8.390;2023-02-01T15:28:03;8.50;99.90
27128;DHT22;14660;49.008;8.390;2023-02-01T15:30:34;8.50;99.90
27128;DHT22;14660;49.008;8.390;2023-02-01T15:35:52;8.50;99.90
27128;DHT22;14660;49.008;8.390;2023-02-01T15:38:43;8.50;99.90
27128;DHT22;14660;49.008;8.390;2023-02-01T15:41:29;8.60;99.90
27128;DHT22;14660;49.008;8.390;2023-02-01T15:45:00;8.50;99.90
27128;DHT22;14660;49.008;8.390;2023-02-01T15:47:10;8.60;99.90
27128;DHT22;14660;49.008;8.390;2023-02-01T15:49:41;8.60;99.90
27128;DHT22;14660;49.008;8.390;2023-02-01T15:52:39;8.50;99.90
27128;DHT22;14660;49.008;8.390;2023-02-01T15:55:18;8.60;99.90
27128;DHT22;14660;49.008;8.390;2023-02-01T15:57:46;8.60;99.90
27128;DHT22;14660;49.008;8.390;2023-02-01T16:00:40;8.50;99.90
27128;DHT22;14660;49.008;8.390;2023-02-01T16:06:44;8.50;99.90
27128;DHT22;14660;49.008;8.390;2023-02-01T16:09:13;8.50;99.90
27128;DHT22;14660;49.008;8.390;2023-02-01T16:12:00;8.50;99.90
27128;DHT22;14660;49.008;8.390;2023-02-01T16:14:27;8.50;99.90
27128;DHT22;14660;49.008;8.390;2023-02-01T16:16:57;8.50;99.90
27128;DHT22;14660;49.008;8.390;2023-02-01T16:19:24;8.60;99.90
27128;DHT22;14660;49.008;8.390;2023-02-01T16:21:55;8.60;99.90
27128;DHT22;14660;49.008;8.390;2023-02-01T16:24:22;8.60;99.90
27128;DHT22;14660;49.008;8.390;2023-02-01T16:26:53;8.50;99.90
27128;DHT22;14660;49.008;8.390;2023-02-01T16:29:19;8.50;99.90
27128;DHT22;14660;49.008;8.390;2023-02-01T16:31:57;8.50;99.90
27128;DHT22;14660;49.008;8.390;2023-02-01T16:34:24;8.50;99.90
27128;DHT22;14660;49.008;8.390;2023-02-01T16:36:51;8.50;99.90
27128;DHT22;14660;49.008;8.390;2023-02-01T16:39:21;8.30;99.90
27128;DHT22;14660;49.008;8.390;2023-02-01T16:41:48;8.40;99.90
27128;DHT22;14660;49.008;8.390;2023-02-01T16:44:15;8.40;99.90
27128;DHT22;14660;49.008;8.390;2023-02-01T16:46:46;8.40;99.90
27128;DHT22;14660;49.008;8.390;2023-02-01T16:49:31;8.40;99.90
27128;DHT22;14660;49.008;8.390;2023-02-01T16:51:59;8.50;99.90
27128;DHT22;14660;49.008;8.390;2023-02-01T16:54:26;8.50;99.90
27128;DHT22;14660;49.008;8.390;2023-02-01T16:56:53;8.50;99.90
27128;DHT22;14660;49.008;8.390;2023-02-01T16:59:22;8.50;99.90
27128;DHT22;14660;49.008;8.390;2023-02-01T17:01:49;8.40;99.90
27128;DHT22;14660;49.008;8.390;2023-02-01T17:04:16;8.40;99.90
27128;DHT22;14660;49.008;8.390;2023-02-01T17:06:43;8.50;99.90
27128;DHT22;14660;49.008;8.390;2023-02-01T17:09:14;8.40;99.90
27128;DHT22;14660;49.008;8.390;2023-02-01T17:11:41;8.40;99.90
27128;DHT22;14660;49.008;8.390;2023-02-01T17:14:20;8.40;99.90
27128;DHT22;14660;49.008;8.390;2023-02-01T17:16:49;8.40;99.90
27128;DHT22;14660;49.008;8.390;2023-02-01T17:19:19;8.40;99.90
27128;DHT22;14660;49.008;8.390;2023-02-01T17:21:51;8.40;99.90
27128;DHT22;14660;49.008;8.390;2023-02-01T17:24:30;8.50;99.90
27128;DHT22;14660;49.008;8.390;2023-02-01T17:26:57;8.40;99.90
27128;DHT22;14660;49.008;8.390;2023-02-01T17:29:24;8.40;99.90
27128;DHT22;14660;49.008;8.390;2023-02-01T17:31:52;8.40;99.90
27128;DHT22;14660;49.008;8.390;2023-02-01T17:34:21;8.40;99.90
27128;DHT22;14660;49.008;8.390;2023-02-01T17:36:49;8.40;99.90
27128;DHT22;14660;49.008;8.390;2023-02-01T17:39:17;8.30;99.90
27128;DHT22;14660;49.008;8.390;2023-02-01T17:42:08;8.40;99.90
27128;DHT22;14660;49.008;8.390;2023-02-01T17:44:37;8.40;99.90
27128;DHT22;14660;49.008;8.390;2023-02-01T17:47:03;8.30;99.90
27128;DHT22;14660;49.008;8.390;2023-02-01T17:49:30;8.30;99.90
27128;DHT22;14660;49.008;8.390;2023-02-01T17:51:58;8.30;99.90
27128;DHT22;14660;49.008;8.390;2023-02-01T17:54:24;8.40;99.90
27128;DHT22;14660;49.008;8.390;2023-02-01T17:56:52;8.40;99.90
27128;DHT22;14660;49.008;8.390;2023-02-01T17:59:27;8.40;99.90
27128;DHT22;14660;49.008;8.390;2023-02-01T18:01:54;8.50;99.90
27128;DHT22;14660;49.008;8.390;2023-02-01T18:04:26;8.40;99.90
27128;DHT22;14660;49.008;8.390;2023-02-01T18:06:53;8.40;99.90
27128;DHT22;14660;49.008;8.390;2023-02-01T18:09:18;8.40;99.90
27128;DHT22;14660;49.008;8.390;2023-02-01T18:11:45;8.40;99.90
27128;DHT22;14660;49.008;8.390;2023-02-01T18:14:15;8.50;99.90
27128;DHT22;14660;49.008;8.390;2023-02-01T18:16:42;8.40;99.90
27128;DHT22;14660;49.008;8.390;2023-02-01T18:19:09;8.30;99.90
27128;DHT22;14660;49.008;8.390;2023-02-01T18:21:54;8.30;99.90
27128;DHT22;14660;49.008;8.390;2023-02-01T18:24:23;8.50;99.90
27128;DHT22;14660;49.008;8.390;2023-02-01T18:26:51;8.40;99.90
27128;DHT22;14660;49.008;8.390;2023-02-01T18:29:18;8.40;99.90
27128;DHT22;14660;49.008;8.390;2023-02-01T18:31:46;8.50;99.90
27128;DHT22;14660;49.008;8.390;2023-02-01T18:34:13;8.40;99.90
27128;DHT22;14660;49.008;8.390;2023-02-01T18:36:49;8.40;99.90
27128;DHT22;14660;49.008;8.390;2023-02-01T18:39:16;8.50;99.90
27128;DHT22;14660;49.008;8.390;2023-02-01T18:41:45;8.50;99.90
27128;DHT22;14660;49.008;8.390;2023-02-01T18:44:16;8.40;99.90
27128;DHT22;14660;49.008;8.390;2023-02-01T18:46:43;8.40;99.90
27128;DHT22;14660;49.008;8.390;2023-02-01T18:49:10;8.40;99.90
27128;DHT22;14660;49.008;8.390;2023-02-01T18:51:43;8.50;99.90
27128;DHT22;14660;49.008;8.390;2023-02-01T18:54:10;8.50;99.90
27128;DHT22;14660;49.008;8.390;2023-02-01T18:56:37;8.50;99.90
27128;DHT22;14660;49.008;8.390;2023-02-01T18:59:05;8.40;99.90
27128;DHT22;14660;49.008;8.390;2023-02-01T19:01:32;8.50;99.90
27128;DHT22;14660;49.008;8.390;2023-02-01T19:03:59;8.50;99.90
27128;DHT22;14660;49.008;8.390;2023-02-01T19:06:26;8.50;99.90
27128;DHT22;14660;49.008;8.390;2023-02-01T19:08:53;8.50;99.90